sensor_id;sensor_type;location;lat;lon;timestamp;temperature;humidity
3202;DHT22;34843;48.744;8.958;2023-02-21T00:02:38;1.00;99.90
3202;DHT22;34843;48.744;8.958;2023-02-21T00:05:23;1.00;99.90
3202;DHT22;34843;48.744;8.958;2023-02-21T00:08:06;0.90;99.90
3202;DHT22;34843;48.744;8.958;2023-02-21T00:10:51;0.90;99.90
3202;DHT22;34843;48.744;8.958;2023-02-21T00:13:36;0.80;99.90
3202;DHT22;34843;48.744;8.958;2023-02-21T00:16:20;0.80;99.90
3202;DHT22;34843;48.744;8.958;2023-02-21T00:19:05;0.80;99.90
3202;DHT22;34843;48.744;8.958;2023-02-21T00:21:49;0.90;99.90
3202;DHT22;34843;48.744;8.958;2023-02-21T00:24:34;0.90;99.90
3202;DHT22;34843;48.744;8.958;2023-02-21T00:27:19;0.90;99.90
3202;DHT22;34843;48.744;8.958;2023-02-21T00:30:04;0.80;99.90
3202;DHT22;34843;48.744;8.958;2023-02-21T00:32:49;0.80;99.90
3202;DHT22;34843;48.744;8.958;2023-02-21T00:35:33;0.80;99.90
3202;DHT22;34843;48.744;8.958;2023-02-21T00:38:17;0.90;99.90
3202;DHT22;34843;48.744;8.958;2023-02-21T00:41:01;0.90;99.90
3202;DHT22;34843;48.744;8.958;2023-02-21T00:43:45;0.90;99.90
3202;DHT22;34843;48.744;8.958;2023-02-21T00:46:29;0.90;99.90
3202;DHT22;34843;48.744;8.958;2023-02-21T00:49:13;0.80;99.90
3202;DHT22;34843;48.744;8.958;2023-02-21T00:51:58;0.80;99.90
3202;DHT22;34843;48.744;8.958;2023-02-21T00:54:41;0.80;99.90
3202;DHT22;34843;48.744;8.958;2023-02-21T00:57:25;0.70;99.90
3202;DHT22;34843;48.744;8.958;2023-02-21T01:00:18;0.70;99.90
3202;DHT22;34843;48.744;8.958;2023-02-21T01:03:03;0.70;99.90
3202;DHT22;34843;48.744;8.958;2023-02-21T01:05:48;0.60;99.90
3202;DHT22;34843;48.744;8.958;2023-02-21T01:08:32;0.70;99.90
3202;DHT22;34843;48.744;8.958;2023-02-21T01:11:18;0.70;99.90
3202;DHT22;34843;48.744;8.958;2023-02-21T01:14:02;0.60;99.90
3202;DHT22;34843;48.744;8.958;2023-02-21T01:16:47;0.60;99.90
3202;DHT22;34843;48.744;8.958;2023-02-21T01:19:32;0.60;99.90
3202;DHT22;34843;48.744;8.958;2023-02-21T01:22:16;0.60;99.90
3202;DHT22;34843;48.744;8.958;2023-02-21T01:25:00;0.60;99.90
3202;DHT22;34843;48.744;8.958;2023-02-21T01:27:44;0.60;99.90
3202;DHT22;34843;48.744;8.958;2023-02-21T01:30:28;0.60;99.90
3202;DHT22;34843;48.744;8.958;2023-02-21T01:33:12;0.70;99.90
3202;DHT22;34843;48.744;8.958;2023-02-21T01:35:56;0.70;99.90
3202;DHT22;34843;48.744;8.958;2023-02-21T01:38:40;0.70;99.90
3202;DHT22;34843;48.744;8.958;2023-02-21T01:41:24;0.70;99.90
3202;DHT22;34843;48.744;8.958;2023-02-21T01:47:14;0.70;99.90
3202;DHT22;34843;48.744;8.958;2023-02-21T01:50:00;-0.20;99.90
3202;DHT22;34843;48.744;8.958;2023-02-21T01:52:47;0.60;99.90
3202;DHT22;34843;48.744;8.958;2023-02-21T01:55:33;0.60;99.90
3202;DHT22;34843;48.744;8.958;2023-02-21T01:58:20;0.60;99.90
3202;DHT22;34843;48.744;8.958;2023-02-21T02:01:07;0.60;99.90
3202;DHT22;34843;48.744;8.958;2023-02-21T02:03:54;0.60;99.90
3202;DHT22;34843;48.744;8.958;2023-02-21T02:06:38;0.60;99.90
3202;DHT22;34843;48.744;8.958;2023-02-21T02:09:22;0.50;99.90
3202;DHT22;34843;48.744;8.958;2023-02-21T02:18:05;0.60;99.90
3202;DHT22;34843;48.744;8.958;2023-02-21T02:35:08;1.70;99.90
3202;DHT22;34843;48.744;8.958;2023-02-21T02:40:26;0.70;99.90
3202;DHT22;34843;48.744;8.958;2023-02-21T02:43:09;0.60;99.90
3202;DHT22;34843;48.744;8.958;2023-02-21T02:45:46;0.60;99.90
3202;DHT22;34843;48.744;8.958;2023-02-21T02:48:20;0.70;99.90
3202;DHT22;34843;48.744;8.958;2023-02-21T02:50:48;0.60;99.90
3202;DHT22;34843;48.744;8.958;2023-02-21T02:53:18;0.70;99.90
3202;DHT22;34843;48.744;8.958;2023-02-21T02:55:52;0.60;99.90
3202;DHT22;34843;48.744;8.958;2023-02-21T02:58:21;0.60;99.90
3202;DHT22;34843;48.744;8.958;2023-02-21T03:01:06;0.60;99.90
3202;DHT22;34843;48.744;8.958;2023-02-21T03:06:50;0.60;99.90
3202;DHT22;34843;48.744;8.958;2023-02-21T03:09:26;0.60;99.90
3202;DHT22;34843;48.744;8.958;2023-02-21T03:12:00;0.50;99.90
3202;DHT22;34843;48.744;8.958;2023-02-21T03:14:34;0.60;99.90
3202;DHT22;34843;48.744;8.958;2023-02-21T03:17:04;0.60;99.90
3202;DHT22;34843;48.744;8.958;2023-02-21T03:19:39;0.60;99.90
3202;DHT22;34843;48.744;8.958;2023-02-21T03:22:13;0.60;99.90
3202;DHT22;34843;48.744;8.958;2023-02-21T03:24:42;0.60;99.90
3202;DHT22;34843;48.744;8.958;2023-02-21T03:27:09;0.60;99.90
3202;DHT22;34843;48.744;8.958;2023-02-21T03:29:36;0.60;99.90
3202;DHT22;34843;48.744;8.958;2023-02-21T03:34:41;0.60;99.90
3202;DHT22;34843;48.744;8.958;2023-02-21T03:37:10;0.60;99.90
3202;DHT22;34843;48.744;8.958;2023-02-21T03:39:42;0.60;99.90
3202;DHT22;34843;48.744;8.958;2023-02-21T03:42:07;0.70;99.90
3202;DHT22;34843;48.744;8.958;2023-02-21T03:44:33;0.70;99.90
3202;DHT22;34843;48.744;8.958;2023-02-21T03:46:58;0.70;99.90
3202;DHT22;34843;48.744;8.958;2023-02-21T03:49:24;0.70;99.90
3202;DHT22;34843;48.744;8.958;2023-02-21T03:51:49;0.80;99.90
3202;DHT22;34843;48.744;8.958;2023-02-21T03:54:15;0.80;99.90
3202;DHT22;34843;48.744;8.958;2023-02-21T03:56:40;0.80;99.90
3202;DHT22;34843;48.744;8.958;2023-02-21T03:59:06;0.80;99.90
3202;DHT22;34843;48.744;8.958;2023-02-21T04:01:31;0.80;99.90
3202;DHT22;34843;48.744;8.958;2023-02-21T04:03:57;0.70;99.90
3202;DHT22;34843;48.744;8.958;2023-02-21T04:06:22;0.80;99.90
3202;DHT22;34843;48.744;8.958;2023-02-21T04:08:48;0.70;99.90
3202;DHT22;34843;48.744;8.958;2023-02-21T04:11:18;0.70;99.90
3202;DHT22;34843;48.744;8.958;2023-02-21T04:13:44;0.60;99.90
3202;DHT22;34843;48.744;8.958;2023-02-21T04:16:09;0.60;99.90
3202;DHT22;34843;48.744;8.958;2023-02-21T04:18:35;0.60;99.90
3202;DHT22;34843;48.744;8.958;2023-02-21T04:21:00;0.60;99.90
3202;DHT22;34843;48.744;8.958;2023-02-21T04:23:26;0.50;99.90
3202;DHT22;34843;48.744;8.958;2023-02-21T04:25:51;0.50;99.90
3202;DHT22;34843;48.744;8.958;2023-02-21T04:28:17;0.50;99.90
3202;DHT22;34843;48.744;8.958;2023-02-21T04:30:42;0.50;99.90
3202;DHT22;34843;48.744;8.958;2023-02-21T04:33:08;0.50;99.90
3202;DHT22;34843;48.744;8.958;2023-02-21T04:35:33;0.50;99.90
3202;DHT22;34843;48.744;8.958;2023-02-21T04:37:59;0.60;99.90
3202;DHT22;34843;48.744;8.958;2023-02-21T04:40:24;0.60;99.90
3202;DHT22;34843;48.744;8.958;2023-02-21T04:42:50;0.60;99.90
3202;DHT22;34843;48.744;8.958;2023-02-21T04:45:15;0.50;99.90
3202;DHT22;34843;48.744;8.958;2023-02-21T04:47:41;0.50;99.90
3202;DHT22;34843;48.744;8.958;2023-02-21T04:50:07;0.40;99.90
3202;DHT22;34843;48.744;8.958;2023-02-21T04:52:32;0.40;99.90
3202;DHT22;34843;48.744;8.958;2023-02-21T04:54:58;0.40;99.90
3202;DHT22;34843;48.744;8.958;2023-02-21T04:57:23;0.40;99.90
3202;DHT22;34843;48.744;8.958;2023-02-21T04:59:56;0.40;99.90
3202;DHT22;34843;48.744;8.958;2023-02-21T05:02:22;0.50;99.90
3202;DHT22;34843;48.744;8.958;2023-02-21T05:04:47;0.40;99.90
3202;DHT22;34843;48.744;8.958;2023-02-21T05:07:13;0.40;99.90
3202;DHT22;34843;48.744;8.958;2023-02-21T05:09:38;0.40;99.90
3202;DHT22;34843;48.744;8.958;2023-02-21T05:12:04;0.30;99.90
3202;DHT22;34843;48.744;8.958;2023-02-21T05:14:38;0.30;99.90
3202;DHT22;34843;48.744;8.958;2023-02-21T05:17:04;0.20;99.90
3202;DHT22;34843;48.744;8.958;2023-02-21T05:19:30;0.20;99.90
3202;DHT22;34843;48.744;8.958;2023-02-21T05:21:57;0.20;99.90
3202;DHT22;34843;48.744;8.958;2023-02-21T05:24:27;0.20;99.90
3202;DHT22;34843;48.744;8.958;2023-02-21T05:26:54;0.20;99.90
3202;DHT22;34843;48.744;8.958;2023-02-21T05:29:20;0.20;99.90
3202;DHT22;34843;48.744;8.958;2023-02-21T05:31:46;0.10;99.90
3202;DHT22;34843;48.744;8.958;2023-02-21T05:34:12;0.20;99.90
3202;DHT22;34843;48.744;8.958;2023-02-21T05:36:38;0.20;99.90
3202;DHT22;34843;48.744;8.958;2023-02-21T05:39:04;0.20;99.90
3202;DHT22;34843;48.744;8.958;2023-02-21T05:41:30;0.20;99.90
3202;DHT22;34843;48.744;8.958;2023-02-21T05:43:56;0.10;99.90
3202;DHT22;34843;48.744;8.958;2023-02-21T05:46:30;0.00;99.90
3202;DHT22;34843;48.744;8.958;2023-02-21T05:48:57;0.00;99.90
3202;DHT22;34843;48.744;8.958;2023-02-21T05:51:24;-0.10;99.90
3202;DHT22;34843;48.744;8.958;2023-02-21T05:53:50;0.00;99.90
3202;DHT22;34843;48.744;8.958;2023-02-21T05:56:16;0.00;99.90
3202;DHT22;34843;48.744;8.958;2023-02-21T05:58:42;0.00;99.90
3202;DHT22;34843;48.744;8.958;2023-02-21T06:01:08;0.00;99.90
3202;DHT22;34843;48.744;8.958;2023-02-21T06:03:33;0.00;99.90
3202;DHT22;34843;48.744;8.958;2023-02-21T06:05:59;0.00;99.90
3202;DHT22;34843;48.744;8.958;2023-02-21T06:08:25;0.00;99.90
3202;DHT22;34843;48.744;8.958;2023-02-21T06:10:50;0.00;99.90
3202;DHT22;34843;48.744;8.958;2023-02-21T06:13:16;0.00;99.90
3202;DHT22;34843;48.744;8.958;2023-02-21T06:15:42;0.00;99.90
3202;DHT22;34843;48.744;8.958;2023-02-21T06:18:07;0.00;99.90
3202;DHT22;34843;48.744;8.958;2023-02-21T06:20:33;0.00;99.90
3202;DHT22;34843;48.744;8.958;2023-02-21T06:22:59;0.10;99.90
3202;DHT22;34843;48.744;8.958;2023-02-21T06:25:24;0.20;99.90
3202;DHT22;34843;48.744;8.958;2023-02-21T06:27:50;0.20;99.90
3202;DHT22;34843;48.744;8.958;2023-02-21T06:30:15;0.30;99.90
3202;DHT22;34843;48.744;8.958;2023-02-21T06:32:42;0.40;99.90
3202;DHT22;34843;48.744;8.958;2023-02-21T06:35:08;0.30;99.90
3202;DHT22;34843;48.744;8.958;2023-02-21T06:37:34;0.30;99.90
3202;DHT22;34843;48.744;8.958;2023-02-21T06:39:59;0.30;99.90
3202;DHT22;34843;48.744;8.958;2023-02-21T06:42:25;0.30;99.90
3202;DHT22;34843;48.744;8.958;2023-02-21T06:44:50;0.30;99.90
3202;DHT22;34843;48.744;8.958;2023-02-21T06:47:16;0.30;99.90
3202;DHT22;34843;48.744;8.958;2023-02-21T06:49:42;0.30;99.90
3202;DHT22;34843;48.744;8.958;2023-02-21T06:52:08;0.40;99.90
3202;DHT22;34843;48.744;8.958;2023-02-21T06:54:34;0.40;99.90
3202;DHT22;34843;48.744;8.958;2023-02-21T06:57:00;0.50;99.90
3202;DHT22;34843;48.744;8.958;2023-02-21T06:59:29;0.50;99.90
3202;DHT22;34843;48.744;8.958;2023-02-21T07:01:55;0.60;99.90
3202;DHT22;34843;48.744;8.958;2023-02-21T07:04:21;0.70;99.90
3202;DHT22;34843;48.744;8.958;2023-02-21T07:06:46;0.80;99.90
3202;DHT22;34843;48.744;8.958;2023-02-21T07:09:12;1.40;99.90
3202;DHT22;34843;48.744;8.958;2023-02-21T07:11:38;2.30;99.90
3202;DHT22;34843;48.744;8.958;2023-02-21T07:14:04;3.60;99.90
3202;DHT22;34843;48.744;8.958;2023-02-21T07:16:29;4.90;99.90
3202;DHT22;34843;48.744;8.958;2023-02-21T07:18:55;6.00;99.90
3202;DHT22;34843;48.744;8.958;2023-02-21T07:21:21;7.30;99.90
3202;DHT22;34843;48.744;8.958;2023-02-21T07:23:47;8.30;99.90
3202;DHT22;34843;48.744;8.958;2023-02-21T07:26:13;8.70;99.90
3202;DHT22;34843;48.744;8.958;2023-02-21T07:28:40;9.00;99.90
3202;DHT22;34843;48.744;8.958;2023-02-21T07:31:06;9.80;99.90
3202;DHT22;34843;48.744;8.958;2023-02-21T07:33:32;9.90;99.90
3202;DHT22;34843;48.744;8.958;2023-02-21T07:35:57;10.40;99.90
3202;DHT22;34843;48.744;8.958;2023-02-21T07:38:28;10.70;99.90
3202;DHT22;34843;48.744;8.958;2023-02-21T07:40:55;11.30;99.90
3202;DHT22;34843;48.744;8.958;2023-02-21T07:43:20;12.30;99.90
3202;DHT22;34843;48.744;8.958;2023-02-21T07:45:46;13.00;99.90
3202;DHT22;34843;48.744;8.958;2023-02-21T07:48:11;13.50;99.90
3202;DHT22;34843;48.744;8.958;2023-02-21T07:50:41;13.60;99.90
3202;DHT22;34843;48.744;8.958;2023-02-21T07:53:07;13.90;99.90
3202;DHT22;34843;48.744;8.958;2023-02-21T07:55:33;14.40;99.90
3202;DHT22;34843;48.744;8.958;2023-02-21T07:57:59;15.20;99.90
3202;DHT22;34843;48.744;8.958;2023-02-21T08:00:24;15.40;99.90
3202;DHT22;34843;48.744;8.958;2023-02-21T08:02:51;15.20;99.90
3202;DHT22;34843;48.744;8.958;2023-02-21T08:05:18;15.40;99.90
3202;DHT22;34843;48.744;8.958;2023-02-21T08:07:44;15.20;99.90
3202;DHT22;34843;48.744;8.958;2023-02-21T08:10:11;14.60;99.90
3202;DHT22;34843;48.744;8.958;2023-02-21T08:12:37;14.40;99.90
3202;DHT22;34843;48.744;8.958;2023-02-21T08:15:04;14.10;99.90
3202;DHT22;34843;48.744;8.958;2023-02-21T08:17:30;13.70;99.90
3202;DHT22;34843;48.744;8.958;2023-02-21T08:19:56;13.60;99.90
3202;DHT22;34843;48.744;8.958;2023-02-21T08:22:21;13.50;99.90
3202;DHT22;34843;48.744;8.958;2023-02-21T08:24:50;13.40;99.90
3202;DHT22;34843;48.744;8.958;2023-02-21T08:27:16;13.60;99.90
3202;DHT22;34843;48.744;8.958;2023-02-21T08:29:42;13.20;99.90
3202;DHT22;34843;48.744;8.958;2023-02-21T08:32:08;12.40;99.90
3202;DHT22;34843;48.744;8.958;2023-02-21T08:34:33;11.20;99.90
3202;DHT22;34843;48.744;8.958;2023-02-21T08:36:59;10.10;99.90
3202;DHT22;34843;48.744;8.958;2023-02-21T08:39:24;9.30;99.90
3202;DHT22;34843;48.744;8.958;2023-02-21T08:41:54;8.70;99.90
3202;DHT22;34843;48.744;8.958;2023-02-21T08:44:20;8.30;99.90
3202;DHT22;34843;48.744;8.958;2023-02-21T08:46:48;8.10;99.90
3202;DHT22;34843;48.744;8.958;2023-02-21T08:49:14;8.00;99.90
3202;DHT22;34843;48.744;8.958;2023-02-21T08:51:40;7.90;99.90
3202;DHT22;34843;48.744;8.958;2023-02-21T08:54:06;7.90;99.90
3202;DHT22;34843;48.744;8.958;2023-02-21T08:56:32;7.90;99.90
3202;DHT22;34843;48.744;8.958;2023-02-21T08:58:58;8.00;99.90
3202;DHT22;34843;48.744;8.958;2023-02-21T09:01:29;8.00;99.90
3202;DHT22;34843;48.744;8.958;2023-02-21T09:03:55;8.10;99.90
3202;DHT22;34843;48.744;8.958;2023-02-21T09:06:20;8.20;99.90
3202;DHT22;34843;48.744;8.958;2023-02-21T09:08:45;8.30;99.90
3202;DHT22;34843;48.744;8.958;2023-02-21T09:11:11;8.50;99.90
3202;DHT22;34843;48.744;8.958;2023-02-21T09:13:37;8.60;99.90
3202;DHT22;34843;48.744;8.958;2023-02-21T09:16:02;8.70;99.90
3202;DHT22;34843;48.744;8.958;2023-02-21T09:18:29;8.80;99.90
3202;DHT22;34843;48.744;8.958;2023-02-21T09:20:55;8.90;99.90
3202;DHT22;34843;48.744;8.958;2023-02-21T09:23:23;9.00;99.90
3202;DHT22;34843;48.744;8.958;2023-02-21T09:25:49;9.10;99.90
3202;DHT22;34843;48.744;8.958;2023-02-21T09:28:16;9.30;99.90
3202;DHT22;34843;48.744;8.958;2023-02-21T09:30:42;9.40;99.90
3202;DHT22;34843;48.744;8.958;2023-02-21T09:33:09;9.50;99.90
3202;DHT22;34843;48.744;8.958;2023-02-21T09:35:35;9.80;99.90
3202;DHT22;34843;48.744;8.958;2023-02-21T09:38:01;9.70;99.90
3202;DHT22;34843;48.744;8.958;2023-02-21T09:40:45;9.80;99.90
3202;DHT22;34843;48.744;8.958;2023-02-21T09:43:29;9.90;99.90
3202;DHT22;34843;48.744;8.958;2023-02-21T09:45:59;10.00;99.90
3202;DHT22;34843;48.744;8.958;2023-02-21T09:48:26;10.10;99.90
3202;DHT22;34843;48.744;8.958;2023-02-21T09:51:04;10.20;99.90
3202;DHT22;34843;48.744;8.958;2023-02-21T09:53:36;10.40;99.90
3202;DHT22;34843;48.744;8.958;2023-02-21T09:56:27;10.50;99.90
3202;DHT22;34843;48.744;8.958;2023-02-21T09:58:54;10.60;99.90
3202;DHT22;34843;48.744;8.958;2023-02-21T10:04:38;10.90;99.90
3202;DHT22;34843;48.744;8.958;2023-02-21T10:07:15;11.00;99.90
3202;DHT22;34843;48.744;8.958;2023-02-21T10:09:53;11.20;99.90
3202;DHT22;34843;48.744;8.958;2023-02-21T10:12:25;11.30;99.90
3202;DHT22;34843;48.744;8.958;2023-02-21T10:20:44;11.80;99.90
3202;DHT22;34843;48.744;8.958;2023-02-21T10:23:18;11.90;99.90
3202;DHT22;34843;48.744;8.958;2023-02-21T10:25:46;12.00;99.90
3202;DHT22;34843;48.744;8.958;2023-02-21T10:28:22;12.10;99.90
3202;DHT22;34843;48.744;8.958;2023-02-21T10:30:50;12.20;99.90
3202;DHT22;34843;48.744;8.958;2023-02-21T10:33:17;12.40;99.90
3202;DHT22;34843;48.744;8.958;2023-02-21T10:35:42;12.50;99.90
3202;DHT22;34843;48.744;8.958;2023-02-21T10:38:14;12.70;99.90
3202;DHT22;34843;48.744;8.958;2023-02-21T10:40:56;12.80;99.90
3202;DHT22;34843;48.744;8.958;2023-02-21T10:43:35;12.90;99.90
3202;DHT22;34843;48.744;8.958;2023-02-21T10:46:27;13.10;99.90
3202;DHT22;34843;48.744;8.958;2023-02-21T10:49:08;13.10;99.90
3202;DHT22;34843;48.744;8.958;2023-02-21T10:51:38;13.30;99.90
3202;DHT22;34843;48.744;8.958;2023-02-21T10:56:44;13.50;99.90
3202;DHT22;34843;48.744;8.958;2023-02-21T10:59:19;13.60;99.90
3202;DHT22;34843;48.744;8.958;2023-02-21T11:01:45;13.70;99.90
3202;DHT22;34843;48.744;8.958;2023-02-21T11:06:45;13.80;99.90
3202;DHT22;34843;48.744;8.958;2023-02-21T11:12:26;13.90;99.90
3202;DHT22;34843;48.744;8.958;2023-02-21T11:17:27;14.00;99.90
3202;DHT22;34843;48.744;8.958;2023-02-21T11:19:54;14.10;99.90
3202;DHT22;34843;48.744;8.958;2023-02-21T11:22:34;14.10;99.90
3202;DHT22;34843;48.744;8.958;2023-02-21T11:25:23;14.20;99.90
3202;DHT22;34843;48.744;8.958;2023-02-21T11:30:35;14.40;99.90
3202;DHT22;34843;48.744;8.958;2023-02-21T11:33:03;14.30;99.90
3202;DHT22;34843;48.744;8.958;2023-02-21T11:35:45;14.20;99.90
3202;DHT22;34843;48.744;8.958;2023-02-21T11:38:36;14.30;99.90
3202;DHT22;34843;48.744;8.958;2023-02-21T11:41:14;14.20;99.90
3202;DHT22;34843;48.744;8.958;2023-02-21T11:43:45;14.30;99.90
3202;DHT22;34843;48.744;8.958;2023-02-21T11:49:13;14.30;99.90
3202;DHT22;34843;48.744;8.958;2023-02-21T11:51:55;14.40;99.90
3202;DHT22;34843;48.744;8.958;2023-02-21T11:54:25;14.50;99.90
3202;DHT22;34843;48.744;8.958;2023-02-21T12:00:29;14.70;99.90
3202;DHT22;34843;48.744;8.958;2023-02-21T12:05:40;14.70;99.90
3202;DHT22;34843;48.744;8.958;2023-02-21T12:32:43;15.10;99.90
3202;DHT22;34843;48.744;8.958;2023-02-21T12:46:18;15.30;99.90
3202;DHT22;34843;48.744;8.958;2023-02-21T12:49:08;15.30;99.90
3202;DHT22;34843;48.744;8.958;2023-02-21T12:51:41;15.40;99.90
3202;DHT22;34843;48.744;8.958;2023-02-21T12:54:14;15.50;99.90
3202;DHT22;34843;48.744;8.958;2023-02-21T12:56:58;15.60;99.90
3202;DHT22;34843;48.744;8.958;2023-02-21T12:59:59;15.60;99.90
3202;DHT22;34843;48.744;8.958;2023-02-21T13:02:41;15.70;99.90
3202;DHT22;34843;48.744;8.958;2023-02-21T13:05:13;15.70;99.90
3202;DHT22;34843;48.744;8.958;2023-02-21T13:07:50;15.70;99.90
3202;DHT22;34843;48.744;8.958;2023-02-21T13:10:23;15.70;99.90
3202;DHT22;34843;48.744;8.958;2023-02-21T13:12:57;15.70;99.90
3202;DHT22;34843;48.744;8.958;2023-02-21T13:15:30;15.80;99.90
3202;DHT22;34843;48.744;8.958;2023-02-21T13:18:00;15.80;99.90
3202;DHT22;34843;48.744;8.958;2023-02-21T13:20:31;15.90;99.90
3202;DHT22;34843;48.744;8.958;2023-02-21T13:28:30;16.00;99.90
3202;DHT22;34843;48.744;8.958;2023-02-21T13:31:01;16.10;99.90
3202;DHT22;34843;48.744;8.958;2023-02-21T13:35:57;16.10;99.90
3202;DHT22;34843;48.744;8.958;2023-02-21T13:38:26;16.10;99.90
3202;DHT22;34843;48.744;8.958;2023-02-21T13:41:02;16.20;99.90
3202;DHT22;34843;48.744;8.958;2023-02-21T13:43:32;16.20;99.90
3202;DHT22;34843;48.744;8.958;2023-02-21T13:55:22;16.20;99.90
3202;DHT22;34843;48.744;8.958;2023-02-21T14:08:25;16.30;99.90
3202;DHT22;34843;48.744;8.958;2023-02-21T14:10:54;16.30;99.90
3202;DHT22;34843;48.744;8.958;2023-02-21T14:13:48;16.30;99.90
3202;DHT22;34843;48.744;8.958;2023-02-21T14:21:39;16.30;99.90
3202;DHT22;34843;48.744;8.958;2023-02-21T14:26:43;16.30;99.90
3202;DHT22;34843;48.744;8.958;2023-02-21T14:29:13;16.30;99.90
3202;DHT22;34843;48.744;8.958;2023-02-21T14:32:22;16.30;99.90
3202;DHT22;34843;48.744;8.958;2023-02-21T14:40:02;16.30;99.90
3202;DHT22;34843;48.744;8.958;2023-02-21T14:46:16;16.30;99.90
3202;DHT22;34843;48.744;8.958;2023-02-21T14:57:33;16.20;99.90
3202;DHT22;34843;48.744;8.958;2023-02-21T15:03:08;16.20;99.90
3202;DHT22;34843;48.744;8.958;2023-02-21T15:06:06;16.10;99.90
3202;DHT22;34843;48.744;8.958;2023-02-21T15:08:40;16.00;99.90
3202;DHT22;34843;48.744;8.958;2023-02-21T15:11:24;16.00;99.90
3202;DHT22;34843;48.744;8.958;2023-02-21T15:14:26;15.90;99.90
3202;DHT22;34843;48.744;8.958;2023-02-21T15:17:00;15.90;99.90
3202;DHT22;34843;48.744;8.958;2023-02-21T15:19:34;15.80;99.90
3202;DHT22;34843;48.744;8.958;2023-02-21T15:22:24;15.80;99.90
3202;DHT22;34843;48.744;8.958;2023-02-21T15:27:24;15.80;99.90
3202;DHT22;34843;48.744;8.958;2023-02-21T15:30:13;15.80;99.90
3202;DHT22;34843;48.744;8.958;2023-02-21T15:32:39;15.80;99.90
3202;DHT22;34843;48.744;8.958;2023-02-21T15:35:21;15.70;99.90
3202;DHT22;34843;48.744;8.958;2023-02-21T15:37:47;15.70;99.90
3202;DHT22;34843;48.744;8.958;2023-02-21T15:40:20;15.70;99.90
3202;DHT22;34843;48.744;8.958;2023-02-21T15:42:49;15.60;99.90
3202;DHT22;34843;48.744;8.958;2023-02-21T15:45:42;15.60;99.90
3202;DHT22;34843;48.744;8.958;2023-02-21T15:48:08;15.50;99.90
3202;DHT22;34843;48.744;8.958;2023-02-21T15:50:37;15.40;99.90
3202;DHT22;34843;48.744;8.958;2023-02-21T15:53:30;15.30;99.90
3202;DHT22;34843;48.744;8.958;2023-02-21T15:56:23;15.20;99.90
3202;DHT22;34843;48.744;8.958;2023-02-21T15:59:11;15.10;99.90
3202;DHT22;34843;48.744;8.958;2023-02-21T16:01:38;15.00;99.90
3202;DHT22;34843;48.744;8.958;2023-02-21T16:04:19;14.80;99.90
3202;DHT22;34843;48.744;8.958;2023-02-21T16:06:50;14.70;99.90
3202;DHT22;34843;48.744;8.958;2023-02-21T16:09:21;14.60;99.90
3202;DHT22;34843;48.744;8.958;2023-02-21T16:14:48;14.40;99.90
3202;DHT22;34843;48.744;8.958;2023-02-21T16:17:36;14.20;99.90
3202;DHT22;34843;48.744;8.958;2023-02-21T16:20:18;14.10;99.90
3202;DHT22;34843;48.744;8.958;2023-02-21T16:22:47;14.00;99.90
3202;DHT22;34843;48.744;8.958;2023-02-21T16:25:23;13.80;99.90
3202;DHT22;34843;48.744;8.958;2023-02-21T16:27:55;13.70;99.90
3202;DHT22;34843;48.744;8.958;2023-02-21T16:30:25;13.60;99.90
3202;DHT22;34843;48.744;8.958;2023-02-21T16:32:53;13.50;99.90
3202;DHT22;34843;48.744;8.958;2023-02-21T16:35:22;13.50;99.90
3202;DHT22;34843;48.744;8.958;2023-02-21T16:37:54;13.40;99.90
3202;DHT22;34843;48.744;8.958;2023-02-21T16:40:23;13.20;99.90
3202;DHT22;34843;48.744;8.958;2023-02-21T16:42:50;13.10;99.90
3202;DHT22;34843;48.744;8.958;2023-02-21T16:45:16;13.00;99.90
3202;DHT22;34843;48.744;8.958;2023-02-21T16:47:42;13.00;99.90
3202;DHT22;34843;48.744;8.958;2023-02-21T16:50:19;12.90;99.90
3202;DHT22;34843;48.744;8.958;2023-02-21T16:52:46;12.70;99.90
3202;DHT22;34843;48.744;8.958;2023-02-21T16:55:16;12.40;99.90
3202;DHT22;34843;48.744;8.958;2023-02-21T16:57:44;12.20;99.90
3202;DHT22;34843;48.744;8.958;2023-02-21T17:00:11;11.90;99.90
3202;DHT22;34843;48.744;8.958;2023-02-21T17:02:36;11.60;99.90
3202;DHT22;34843;48.744;8.958;2023-02-21T17:05:02;11.40;99.90
3202;DHT22;34843;48.744;8.958;2023-02-21T17:07:27;11.10;99.90
3202;DHT22;34843;48.744;8.958;2023-02-21T17:09:53;11.00;99.90
3202;DHT22;34843;48.744;8.958;2023-02-21T17:12:18;10.80;99.90
3202;DHT22;34843;48.744;8.958;2023-02-21T17:14:44;10.60;99.90
3202;DHT22;34843;48.744;8.958;2023-02-21T17:17:09;10.40;99.90
3202;DHT22;34843;48.744;8.958;2023-02-21T17:19:35;10.30;99.90
3202;DHT22;34843;48.744;8.958;2023-02-21T17:22:00;10.10;99.90
3202;DHT22;34843;48.744;8.958;2023-02-21T17:24:26;10.00;99.90
3202;DHT22;34843;48.744;8.958;2023-02-21T17:26:52;10.00;99.90
3202;DHT22;34843;48.744;8.958;2023-02-21T17:29:18;9.80;99.90
3202;DHT22;34843;48.744;8.958;2023-02-21T17:31:44;9.60;99.90
3202;DHT22;34843;48.744;8.958;2023-02-21T17:34:11;9.60;99.90
3202;DHT22;34843;48.744;8.958;2023-02-21T17:36:38;9.50;99.90
3202;DHT22;34843;48.744;8.958;2023-02-21T17:39:03;9.40;99.90
3202;DHT22;34843;48.744;8.958;2023-02-21T17:41:30;9.30;99.90
3202;DHT22;34843;48.744;8.958;2023-02-21T17:43:55;9.10;99.90
3202;DHT22;34843;48.744;8.958;2023-02-21T17:46:21;8.90;99.90
3202;DHT22;34843;48.744;8.958;2023-02-21T17:48:47;8.80;99.90
3202;DHT22;34843;48.744;8.958;2023-02-21T17:51:21;8.80;99.90
3202;DHT22;34843;48.744;8.958;2023-02-21T17:53:47;8.70;99.90
3202;DHT22;34843;48.744;8.958;2023-02-21T17:56:18;8.70;99.90
3202;DHT22;34843;48.744;8.958;2023-02-21T17:58:44;8.60;99.90
3202;DHT22;34843;48.744;8.958;2023-02-21T18:01:14;8.40;99.90
3202;DHT22;34843;48.744;8.958;2023-02-21T18:03:39;8.40;99.90
3202;DHT22;34843;48.744;8.958;2023-02-21T18:06:05;8.30;99.90
3202;DHT22;34843;48.744;8.958;2023-02-21T18:08:31;8.10;99.90
3202;DHT22;34843;48.744;8.958;2023-02-21T18:10:56;8.00;99.90
3202;DHT22;34843;48.744;8.958;2023-02-21T18:13:22;7.80;99.90
3202;DHT22;34843;48.744;8.958;2023-02-21T18:15:47;7.70;99.90
3202;DHT22;34843;48.744;8.958;2023-02-21T18:18:14;7.60;99.90
3202;DHT22;34843;48.744;8.958;2023-02-21T18:20:39;7.40;99.90
3202;DHT22;34843;48.744;8.958;2023-02-21T18:23:05;7.30;99.90
3202;DHT22;34843;48.744;8.958;2023-02-21T18:25:31;7.30;99.90
3202;DHT22;34843;48.744;8.958;2023-02-21T18:27:57;7.30;99.90
3202;DHT22;34843;48.744;8.958;2023-02-21T18:30:23;7.20;99.90
3202;DHT22;34843;48.744;8.958;2023-02-21T18:32:48;7.20;99.90
3202;DHT22;34843;48.744;8.958;2023-02-21T18:35:14;7.20;99.90
3202;DHT22;34843;48.744;8.958;2023-02-21T18:37:40;7.20;99.90
3202;DHT22;34843;48.744;8.958;2023-02-21T18:40:07;7.30;99.90
3202;DHT22;34843;48.744;8.958;2023-02-21T18:42:33;7.30;99.90
3202;DHT22;34843;48.744;8.958;2023-02-21T18:44:59;7.30;99.90
3202;DHT22;34843;48.744;8.958;2023-02-21T18:47:25;7.20;99.90
3202;DHT22;34843;48.744;8.958;2023-02-21T18:49:51;7.10;99.90
3202;DHT22;34843;48.744;8.958;2023-02-21T18:52:17;7.00;99.90
3202;DHT22;34843;48.744;8.958;2023-02-21T18:54:47;6.90;99.90
3202;DHT22;34843;48.744;8.958;2023-02-21T18:57:17;6.80;99.90
3202;DHT22;34843;48.744;8.958;2023-02-21T18:59:43;6.80;99.90
3202;DHT22;34843;48.744;8.958;2023-02-21T19:02:14;6.70;99.90
3202;DHT22;34843;48.744;8.958;2023-02-21T19:04:41;6.60;99.90